createdAt,value
2022-10-13T00:08:30.253Z,73.64
2022-10-13T00:18:35.944Z,73.48
2022-10-13T00:28:42.162Z,73.82
2022-10-13T00:38:48.394Z,74.49
2022-10-13T00:48:55.782Z,75.20
2022-10-13T00:59:04.564Z,76.82
2022-10-13T01:09:10.231Z,76.82
2022-10-13T01:19:35.466Z,77.03
2022-10-13T01:30:07.722Z,77.07
2022-10-13T01:40:25.095Z,76.19
2022-10-13T01:50:31.921Z,76.86
2022-10-13T02:00:44.963Z,78.48
2022-10-13T02:10:58.518Z,79.44
2022-10-13T02:21:05.362Z,80.29
2022-10-13T02:31:11.998Z,80.36
2022-10-13T02:41:17.673Z,80.81
2022-10-13T02:51:23.433Z,81.17
2022-10-13T03:01:29.338Z,81.32
2022-10-13T03:11:35.247Z,82.08
2022-10-13T03:21:41.186Z,82.34
2022-10-13T03:31:46.918Z,82.48
2022-10-13T03:41:52.651Z,83.08
2022-10-13T03:51:58.298Z,83.36
2022-10-13T04:02:04.238Z,83.51
2022-10-13T04:12:10.171Z,83.86
2022-10-13T04:22:15.851Z,83.81
2022-10-13T04:32:22.032Z,84.13
2022-10-13T04:42:28.184Z,83.11
2022-10-13T04:52:34.606Z,83.53
2022-10-13T05:02:40.647Z,83.93
2022-10-13T05:12:46.389Z,84.48
2022-10-13T05:22:52.152Z,84.95
2022-10-13T05:32:58.248Z,84.75
2022-10-13T05:43:04.816Z,84.23
2022-10-13T05:53:10.685Z,83.73
2022-10-13T06:03:19.190Z,83.90
2022-10-13T06:13:24.795Z,80.10
2022-10-13T06:23:30.434Z,72.24
2022-10-13T06:33:36.275Z,65.03
2022-10-13T06:43:41.839Z,59.48
2022-10-13T06:53:47.515Z,54.58
2022-10-13T07:03:53.679Z,50.55
2022-10-13T07:13:59.539Z,46.40
2022-10-13T07:24:06.034Z,43.42
2022-10-13T07:34:11.930Z,39.97
2022-10-13T07:44:17.624Z,37.54
2022-10-13T07:54:26.510Z,35.79
2022-10-13T08:04:33.761Z,34.06
2022-10-13T08:14:39.545Z,32.82
2022-10-13T08:24:45.393Z,30.81
2022-10-13T08:34:51.213Z,29.55
2022-10-13T08:45:39.834Z,28.21
2022-10-13T08:55:32.495Z,28.39
2022-10-13T09:05:44.870Z,27.70
2022-10-13T09:15:52.343Z,30.55
2022-10-13T09:25:59.249Z,35.56
2022-10-13T09:36:16.493Z,39.07
2022-10-13T09:46:26.363Z,41.96
2022-10-13T09:56:39.449Z,43.49
2022-10-13T10:06:46.967Z,45.02
2022-10-13T10:17:01.413Z,45.78
2022-10-13T10:27:16.140Z,45.75
2022-10-13T10:37:40.697Z,46.31
2022-10-13T10:47:49.789Z,47.14
2022-10-13T10:58:03.176Z,47.65
2022-10-13T11:08:29.764Z,48.07
2022-10-13T11:19:05.755Z,48.43
2022-10-13T11:29:40.916Z,48.69
2022-10-13T11:40:16.143Z,48.99
2022-10-13T11:50:31.376Z,49.21
2022-10-13T12:00:37.061Z,49.36
2022-10-13T12:10:42.773Z,49.13
2022-10-13T12:20:54.863Z,49.14
2022-10-13T12:31:01.870Z,49.08
2022-10-13T12:41:08.744Z,49.18
2022-10-13T12:51:25.609Z,49.57
2022-10-13T13:01:36.183Z,49.63
2022-10-13T13:11:42.182Z,49.06
2022-10-13T13:21:47.858Z,49.35
2022-10-13T13:31:53.497Z,49.68
2022-10-13T13:41:59.287Z,49.69
2022-10-13T13:52:05.007Z,49.70
2022-10-13T14:02:16.478Z,49.79
2022-10-13T14:12:22.681Z,49.93
2022-10-13T14:22:28.637Z,50.20
2022-10-13T14:32:35.200Z,50.59
2022-10-13T14:42:42.488Z,50.98
2022-10-13T14:52:48.129Z,51.44
2022-10-13T15:02:53.999Z,52.07
2022-10-13T15:12:59.684Z,52.60
2022-10-13T15:23:05.472Z,53.42
2022-10-13T15:33:11.112Z,54.11
2022-10-13T15:43:17.399Z,54.78
2022-10-13T15:53:23.712Z,55.70
2022-10-13T16:03:29.952Z,56.56
2022-10-13T16:13:35.738Z,57.39
2022-10-13T16:23:41.519Z,58.13
2022-10-13T16:33:47.851Z,59.11
2022-10-13T16:43:53.544Z,60.03
2022-10-13T16:54:04.186Z,60.66
2022-10-13T17:04:10.347Z,61.31
2022-10-13T17:14:16.107Z,62.12
2022-10-13T17:24:21.820Z,62.69
2022-10-13T17:34:27.584Z,63.54
2022-10-13T17:44:33.798Z,63.92
2022-10-13T17:54:39.465Z,64.88
2022-10-13T18:04:45.486Z,65.33
2022-10-13T18:14:51.485Z,66.12
2022-10-13T18:24:57.404Z,66.66
2022-10-13T18:35:03.392Z,67.24
2022-10-13T18:45:10.650Z,67.72
2022-10-13T18:55:16.513Z,68.31
2022-10-13T19:05:22.092Z,69.06
2022-10-13T19:15:27.904Z,69.32
2022-10-13T19:25:33.953Z,69.77
2022-10-13T19:35:44.360Z,70.24
2022-10-13T19:45:57.392Z,70.49
2022-10-13T19:56:05.547Z,71.28
2022-10-13T20:06:12.197Z,71.52
2022-10-13T20:16:21.405Z,71.60
2022-10-13T20:26:27.674Z,72.01
2022-10-13T20:36:38.362Z,71.89
2022-10-13T20:46:44.949Z,72.30
2022-10-13T20:56:52.547Z,72.61
2022-10-13T21:06:58.356Z,72.93
2022-10-13T21:17:04.202Z,73.25
2022-10-13T21:27:09.932Z,73.45
2022-10-13T21:37:15.708Z,73.49
2022-10-13T21:47:21.681Z,73.60
2022-10-13T21:57:27.516Z,73.64
2022-10-13T22:07:33.367Z,73.91
2022-10-13T22:17:39.232Z,74.50
2022-10-13T22:27:45.042Z,74.86
2022-10-13T22:37:50.690Z,74.99
2022-10-13T22:47:56.427Z,75.42
2022-10-13T22:58:02.114Z,75.87
2022-10-13T23:08:08.015Z,76.31
2022-10-13T23:18:14.246Z,76.68
2022-10-13T23:28:20.115Z,77.13
2022-10-13T23:38:27.014Z,77.70
2022-10-13T23:48:33.013Z,77.84
2022-10-13T23:58:40.575Z,78.46
